• Join FlightAware (Why Join?)
  • Login
  • US Flag 
11:15AM EST


 

Airport Tracker/Info


-or-


 

Live Flight TrackerFlight Track Log ✈ SWA2874 ✈ 07-May-2013 ✈ KBWI - KCMH

Flight Track Log - Related Links

Times and Time Zones

All times are in EDT time to prevent confusion due to time zone crossing. See the SWA2874 flight status page for this flight to view local times or setup timezone preferences in your user account.

Time Position Orientation Groundspeed Altitude Reporting Facility
EDT Latitude Longitude Course Direction KTS MPH feet Rate Location/Type
09:17PM 39.1500 -76.7333 270° West 291 335 7,000  Level Potomac TRACON
09:17PM 39.1833 -76.8167 297° West 320 368 10,500 2,737 Climbing Potomac TRACON
09:18PM 39.2167 -76.9333 290° West 340 391 12,200 2,900 Climbing Potomac TRACON
09:19PM 39.2167 -77.0667 270° West 357 411 16,300 4,000 Climbing Potomac TRACON
09:20PM 39.1833 -77.1833 250° West 375 432 20,200 2,594 Climbing Potomac TRACON
09:21PM 39.1023 -77.2297 211° Southwest  Level FlightAware Approximate
09:22PM 39.0678 -77.3106 221° Southwest 383 441 23,000  Level Washington Center
09:23PM 39.0531 -77.4572 263° West 377 434 23,300 1,869 Climbing Washington Center
09:24PM 39.0361 -77.6172 262° West 402 463 26,800 1,884 Climbing Washington Center
09:25PM 39.0189 -77.7636 261° West 418 481 27,100 1,068 Climbing Washington Center
09:26PM 39.0019 -77.8861 260° West 434 499 28,900 1,475 Climbing Washington Center
09:27PM 38.9794 -78.0722 261° West 445 512 30,000 545 Climbing Washington Center
09:28PM 38.9614 -78.2372 262° West 459 528 30,000  Level Washington Center
09:29PM 38.9658 -78.4108 272° West 470 541 30,000  Level Washington Center
09:30PM 38.9722 -78.5767 273° West 476 548 30,000  Level Washington Center
09:31PM 38.9908 -78.7458 278° West 476 548 30,000  Level Washington Center
09:32PM 39.0178 -78.9100 282° West 476 548 30,000  Level Washington Center
09:33PM 39.0403 -79.0686 280° West 476 548 30,000  Level Washington Center
09:34PM 39.0667 -79.2331 282° West 466 536 30,000  Level Washington Center
09:35PM 39.0894 -79.3786 281° West 466 536 30,000  Level Washington Center
09:36PM 39.0925 -79.5364 271° West 461 531 30,000  Level Washington Center
09:37PM 39.0978 -79.6947 273° West 456 525 30,000  Level Washington Center
09:38PM 39.1025 -79.8581 272° West 456 525 30,000  Level Washington Center
09:40PM 39.1097 -80.2506 271° West 451 519 30,000  Level Indianapolis Center
09:42PM 39.1136 -80.4111 272° West 450 518 30,000  Level Indianapolis Center
09:43PM 39.1178 -80.5736 272° West 453 521 30,000  Level Indianapolis Center
09:44PM 39.1219 -80.7372 272° West 458 527 30,000  Level Indianapolis Center
09:45PM 39.1300 -80.9314 273° West 456 525 30,000  Level Indianapolis Center
09:46PM 39.1328 -81.0914 271° West 455 524 30,000  Level Indianapolis Center
09:47PM 39.1819 -81.2358 294° West 443 510 30,000 -683 Level Indianapolis Center
09:48PM 39.2364 -81.3800 296° West 447 514 28,600 -2,066 Descending Indianapolis Center
09:49PM 39.2900 -81.5250 296° West 450 518 25,800 -2,607 Descending Indianapolis Center
09:50PM 39.3425 -81.6650 296° West 440 506 23,300 -2,439 Descending Indianapolis Center
09:51PM 39.3914 -81.8014 295° West 427 491 20,800 -2,390 Descending Indianapolis Center
09:52PM 39.4389 -81.9331 295° West 411 473 18,400 -2,727 Descending Indianapolis Center
09:52PM 39.4606 -81.9906 296° West 397 457 17,300 -2,754 Descending Indianapolis Center
09:53PM 39.4944 -82.0822 296° West 388 447 15,600 -2,300 Descending Indianapolis Center
09:53PM 39.5033 -82.1136 290° West 376 433 15,000 -2,323 Descending Indianapolis Center
09:54PM 39.5364 -82.2031 296° West 372 428 13,200 -2,111 Descending Indianapolis Center
09:55PM 39.5786 -82.3181 296° West 353 406 11,200 -971 Descending Indianapolis Center
09:56PM 39.6342 -82.4328 302° West 290 334 11,000 -148 Descending Indianapolis Center
09:57PM 39.6764 -82.4983 310° West 302 348 10,900 -500 Descending Indianapolis Center
09:58PM 39.7353 -82.5833 312° West 312 359 10,100 -1,220 Descending Indianapolis Center
09:59PM 39.7825 -82.6700 305° West 296 341 8,400 -1,073 Descending Indianapolis Center
10:00PM 39.8106 -82.7672 291° West 285 328 7,900 -934 Descending Indianapolis Center
10:01PM 39.8364 -82.8581 290° West 268 308 6,500 -1,377 Descending Indianapolis Center
10:02PM 39.8631 -82.9453 292° West 259 298 5,100 -1,082 Descending Indianapolis Center
10:03PM 39.8914 -83.0233 295° West 243 280 4,300 -984 Descending Indianapolis Center
10:04PM 39.9381 -83.0431 342° North 203 234 3,100 -1,033 Descending Indianapolis Center
10:05PM 39.9761 -83.0225 22° Northeast 166 191 2,200 -682 Descending Indianapolis Center
10:06PM 39.9964 -82.9694 63° Northeast 117 135 1,600 -488 Descending Indianapolis Center
10:07PM 39.9986 -82.9406 84° East 123 142 1,200 -372 Descending Indianapolis Center
10:08PM 39.9944 -82.8956 97° East 120 138 900 -295 Descending Indianapolis Center